Time;durP1;ratioP1;P1;durP2;ratioP2;P2;SDS_P1;SDS_P2;PMS_P1;PMS_P2;Temp;Humidity;BMP_temperature;BMP_pressure;BME280_temperature;BME280_humidity;BME280_pressure;Samples;Min_cycle;Max_cycle;Signal;HPM_P1;HPM_P2
2022/07/04 00:02:10;;;;;;;1.60;0.60;;;;;;;25.14;43.91;100546.78;5009372;28;20917;-75
2022/07/04 00:04:35;;;;;;;0.80;0.60;;;;;;;25.09;43.66;100549.75;5032354;28;20396;-75
2022/07/04 00:07:01;;;;;;;1.10;1.00;;;;;;;25.04;43.80;100550.78;5031016;28;20406;-75
2022/07/04 00:09:26;;;;;;;2.33;0.77;;;;;;;25.07;44.19;100552.03;5032062;28;20391;-74
2022/07/04 00:11:51;;;;;;;1.40;0.87;;;;;;;25.09;43.96;100556.09;5011752;28;20585;-75
2022/07/04 00:14:16;;;;;;;1.80;0.60;;;;;;;25.09;43.47;100550.53;5019747;28;20410;-74
2022/07/04 00:16:42;;;;;;;1.17;0.70;;;;;;;25.04;43.78;100548.00;5030324;28;20414;-74
2022/07/04 00:19:07;;;;;;;0.77;0.70;;;;;;;24.97;43.40;100544.97;5030364;28;20757;-75
2022/07/04 00:21:32;;;;;;;3.23;0.80;;;;;;;24.90;43.75;100541.09;5016213;28;20421;-75
2022/07/04 00:23:58;;;;;;;3.50;0.87;;;;;;;24.81;43.75;100543.91;5031925;28;21020;-75
2022/07/04 00:26:23;;;;;;;1.40;0.60;;;;;;;24.76;44.25;100544.91;5030488;28;20392;-75
2022/07/04 00:28:48;;;;;;;0.80;0.77;;;;;;;24.78;43.92;100544.59;5031857;28;20879;-75
2022/07/04 00:31:13;;;;;;;2.80;0.70;;;;;;;24.75;44.35;100545.28;5028434;28;20423;-75
2022/07/04 00:33:39;;;;;;;1.87;0.73;;;;;;;24.74;43.99;100543.63;5031855;28;20469;-75
2022/07/04 00:36:04;;;;;;;3.17;1.07;;;;;;;24.74;43.93;100544.44;5018547;28;20453;-75
2022/07/04 00:38:30;;;;;;;1.83;0.80;;;;;;;24.68;44.21;100551.34;5028483;28;20399;-75
2022/07/04 00:40:55;;;;;;;0.95;0.52;;;;;;;24.66;44.56;100555.59;5022457;28;20904;-75
2022/07/04 00:43:26;;;;;;;1.43;0.60;;;;;;;24.60;44.10;100554.19;5002667;28;20411;-75
2022/07/04 00:45:52;;;;;;;1.60;0.60;;;;;;;24.51;44.27;100568.09;5030140;28;20390;-75
2022/07/04 00:48:18;;;;;;;4.27;0.90;;;;;;;24.48;44.82;100568.75;5031556;28;20957;-75
2022/07/04 00:50:46;;;;;;;1.27;0.70;;;;;;;24.54;44.51;100577.66;5022669;28;20965;-75
2022/07/04 00:53:12;;;;;;;1.30;0.70;;;;;;;24.57;44.48;100577.00;5005311;28;20395;-75
2022/07/04 00:55:38;;;;;;;5.47;0.80;;;;;;;24.57;44.41;100575.03;5031269;28;20438;-75
2022/07/04 00:58:04;;;;;;;2.08;0.65;;;;;;;24.58;45.00;100573.09;5031301;28;20397;-75
2022/07/04 01:00:29;;;;;;;1.20;1.10;;;;;;;24.52;45.03;100577.22;5028220;28;20886;-75
2022/07/04 01:02:55;;;;;;;0.90;0.80;;;;;;;24.51;45.32;100584.69;4998122;28;20880;-75
2022/07/04 01:05:20;;;;;;;1.27;0.97;;;;;;;24.52;45.57;100582.75;5028113;28;20410;-75
2022/07/04 01:07:46;;;;;;;2.27;0.90;;;;;;;24.50;45.21;100580.31;5030895;28;20411;-74
2022/07/04 01:10:11;;;;;;;2.38;0.90;;;;;;;24.46;45.43;100578.56;5005579;28;20797;-75
2022/07/04 01:12:37;;;;;;;2.30;0.80;;;;;;;24.40;45.12;100572.41;5027347;28;20384;-74
2022/07/04 01:15:04;;;;;;;1.48;0.85;;;;;;;24.38;45.45;100571.91;5028567;28;20409;-74
2022/07/04 01:17:29;;;;;;;1.33;0.80;;;;;;;24.31;45.49;100568.84;5020694;28;20383;-75
2022/07/04 01:19:54;;;;;;;0.70;0.63;;;;;;;24.33;45.55;100571.28;5015772;28;20921;-75
2022/07/04 01:22:21;;;;;;;2.57;0.60;;;;;;;24.25;45.45;100571.00;4994989;28;20434;-75
2022/07/04 01:24:46;;;;;;;1.90;0.67;;;;;;;24.20;45.67;100579.47;5031040;28;20406;-75
2022/07/04 01:27:12;;;;;;;1.90;0.68;;;;;;;24.23;45.51;100580.78;5008476;28;20404;-75
2022/07/04 01:29:37;;;;;;;1.73;0.70;;;;;;;24.21;45.42;100583.06;5023632;28;20425;-75
2022/07/04 01:32:08;;;;;;;1.23;0.90;;;;;;;24.19;45.26;100586.19;5028473;28;20427;-75
2022/07/04 01:34:34;;;;;;;2.28;0.63;;;;;;;24.13;45.49;100592.22;5011541;28;20969;-75
2022/07/04 01:37:00;;;;;;;1.38;0.70;;;;;;;24.12;45.50;100590.59;5013224;28;20420;-75
2022/07/04 01:39:29;;;;;;;1.52;0.85;;;;;;;24.04;45.29;100596.97;5016001;28;20383;-75
2022/07/04 01:41:54;;;;;;;1.30;0.52;;;;;;;24.01;45.95;100589.28;5024101;28;20393;-75
2022/07/04 01:44:20;;;;;;;2.20;0.70;;;;;;;24.02;45.67;100586.22;5014048;28;20490;-75
2022/07/04 01:46:45;;;;;;;1.05;0.50;;;;;;;23.94;45.57;100600.09;5023441;28;20488;-74
2022/07/04 01:49:11;;;;;;;1.45;0.40;;;;;;;23.90;45.49;100602.72;5011525;28;20477;-75
2022/07/04 01:51:43;;;;;;;0.70;0.60;;;;;;;23.87;45.61;100603.38;5030567;28;20419;-75
2022/07/04 01:54:09;;;;;;;1.50;0.53;;;;;;;23.83;45.24;100612.66;5027997;28;20465;-75
2022/07/04 01:56:34;;;;;;;1.20;0.50;;;;;;;23.85;45.02;100604.81;5026859;28;20887;-75
2022/07/04 01:59:01;;;;;;;1.33;0.67;;;;;;;23.86;45.25;100598.16;5013956;28;20391;-75
2022/07/04 02:01:29;;;;;;;1.00;0.60;;;;;;;23.86;45.26;100606.44;5024729;28;20387;-75
2022/07/04 02:03:55;;;;;;;0.68;0.68;;;;;;;23.84;45.14;100608.75;5030330;28;20827;-75
2022/07/04 02:06:21;;;;;;;0.80;0.68;;;;;;;23.83;45.40;100607.94;5034493;28;20785;-75
2022/07/04 02:13:00;;;;;;;1.52;0.55;;;;;;;23.82;45.21;100605.47;5017863;28;20428;-75
2022/07/04 02:14:15;;;;;;;2.40;0.52;;;;;;;23.85;45.40;100607.59;5008977;28;20526;-74
2022/07/04 02:16:40;;;;;;;1.50;0.40;;;;;;;23.82;45.18;100605.47;5029237;28;20471;-75
2022/07/04 02:19:06;;;;;;;0.40;0.40;;;;;;;23.80;45.16;100610.53;5028961;28;20415;-75
2022/07/04 02:21:31;;;;;;;1.07;0.67;;;;;;;23.73;45.55;100605.50;5033418;28;20893;-75
2022/07/04 02:23:56;;;;;;;1.30;0.67;;;;;;;23.73;45.58;100608.28;5017460;28;20418;-75
2022/07/04 02:26:22;;;;;;;1.60;0.50;;;;;;;23.71;45.88;100605.81;5034046;28;20395;-75
2022/07/04 02:28:47;;;;;;;0.63;0.63;;;;;;;23.75;45.86;100617.88;5034123;28;20395;-75
2022/07/04 02:31:12;;;;;;;0.90;0.43;;;;;;;23.74;45.50;100609.91;5033017;28;20421;-75
2022/07/04 02:33:38;;;;;;;0.50;0.50;;;;;;;23.69;45.68;100610.06;5018589;28;20467;-75
2022/07/04 02:36:03;;;;;;;0.40;0.40;;;;;;;23.67;45.54;100621.47;5012294;28;20762;-75
2022/07/04 02:38:29;;;;;;;1.42;0.47;;;;;;;23.65;45.67;100626.50;5033697;28;20383;-75
2022/07/04 02:40:54;;;;;;;0.70;0.43;;;;;;;23.63;45.53;100628.81;5032125;28;20414;-75
2022/07/04 02:43:19;;;;;;;1.97;0.67;;;;;;;23.65;45.38;100620.16;5009122;28;20463;-75
2022/07/04 02:45:45;;;;;;;1.47;0.70;;;;;;;23.64;45.56;100622.16;5026820;28;20876;-75
2022/07/04 02:48:10;;;;;;;0.90;0.50;;;;;;;23.61;46.33;100621.97;5033487;28;20401;-75
2022/07/04 02:50:36;;;;;;;4.70;0.80;;;;;;;23.55;46.38;100614.97;5025730;28;20414;-75
2022/07/04 02:53:01;;;;;;;1.33;0.57;;;;;;;23.48;46.45;100629.28;5026401;28;20877;-75
2022/07/04 02:55:26;;;;;;;1.40;0.60;;;;;;;23.46;47.01;100631.59;5033660;28;20423;-75
2022/07/04 02:57:51;;;;;;;2.93;0.90;;;;;;;23.45;47.06;100629.13;5033466;28;20473;-75
2022/07/04 03:00:17;;;;;;;2.47;0.87;;;;;;;23.45;47.21;100629.94;5031279;28;20410;-75
2022/07/04 03:02:42;;;;;;;6.20;0.70;;;;;;;23.34;47.49;100631.41;5030405;28;20407;-75
2022/07/04 03:05:08;;;;;;;1.07;0.50;;;;;;;23.23;47.96;100633.69;5033284;28;20913;-74
2022/07/04 03:07:33;;;;;;;1.03;0.80;;;;;;;23.11;48.42;100636.28;5029791;28;20395;-75
2022/07/04 03:09:58;;;;;;;2.83;0.60;;;;;;;23.15;48.37;100637.25;5025691;28;20499;-75
2022/07/04 03:12:23;;;;;;;1.50;0.63;;;;;;;23.17;48.37;100631.41;5031675;28;20427;-75
2022/07/04 03:14:49;;;;;;;1.10;0.70;;;;;;;23.19;48.78;100637.41;5001415;28;20457;-75
2022/07/04 03:17:14;;;;;;;5.60;1.00;;;;;;;23.14;49.01;100632.03;5032977;28;20399;-75
2022/07/04 03:19:39;;;;;;;1.07;0.60;;;;;;;23.05;49.37;100631.22;5031569;28;20453;-75
2022/07/04 03:22:04;;;;;;;1.10;0.80;;;;;;;23.08;49.36;100634.16;5013559;28;20414;-75
2022/07/04 03:24:30;;;;;;;2.60;1.00;;;;;;;23.13;49.09;100644.22;5026234;28;20462;-74
2022/07/04 03:26:55;;;;;;;5.37;0.90;;;;;;;23.16;49.02;100644.41;5006895;28;20441;-75
2022/07/04 03:29:20;;;;;;;2.30;0.63;;;;;;;23.14;49.24;100640.34;5028923;28;20747;-75
2022/07/04 03:31:45;;;;;;;0.93;0.80;;;;;;;23.14;49.20;100648.63;5017708;28;20444;-75
2022/07/04 03:34:11;;;;;;;1.00;0.90;;;;;;;23.09;49.48;100644.06;5028241;28;20472;-75
2022/07/04 03:36:36;;;;;;;1.90;0.80;;;;;;;23.05;49.72;100648.59;5023912;28;20409;-75
2022/07/04 03:39:02;;;;;;;1.43;0.73;;;;;;;23.03;49.83;100652.84;5032953;28;20797;-75
2022/07/04 03:41:28;;;;;;;1.25;0.80;;;;;;;23.06;50.19;100643.91;5023009;28;20425;-75
2022/07/04 03:43:53;;;;;;;3.60;0.73;;;;;;;23.07;50.46;100653.81;5026160;28;20434;-75
2022/07/04 03:46:18;;;;;;;0.60;0.60;;;;;;;23.03;50.63;100650.06;5032587;28;20395;-75
2022/07/04 03:48:43;;;;;;;2.53;0.60;;;;;;;22.96;50.83;100647.78;5046526;28;20411;-75
2022/07/04 03:51:10;;;;;;;2.60;0.60;;;;;;;22.86;51.21;100650.84;5032414;28;20453;-75
2022/07/04 03:53:36;;;;;;;2.10;0.60;;;;;;;22.77;51.22;100650.03;5024722;28;20399;-75
2022/07/04 03:56:02;;;;;;;2.20;0.90;;;;;;;22.74;51.64;100650.69;5030383;28;20758;-75
2022/07/04 03:58:27;;;;;;;2.13;0.90;;;;;;;22.75;51.36;100644.03;5019133;28;20414;-75
2022/07/04 04:00:52;;;;;;;2.13;1.13;;;;;;;22.71;51.58;100654.09;5014768;28;20395;-75
2022/07/04 04:06:01;;;;;;;2.60;0.90;;;;;;;22.72;51.62;100658.47;5017642;28;20381;-75
2022/07/04 04:08:26;;;;;;;2.33;0.80;;;;;;;22.71;51.49;100651.31;5046196;28;20403;-75
2022/07/04 04:10:52;;;;;;;2.10;0.80;;;;;;;22.67;51.44;100653.91;5026123;28;20403;-75
2022/07/04 04:13:17;;;;;;;1.30;0.90;;;;;;;22.63;51.48;100663.13;5032029;28;20965;-75
2022/07/04 04:15:42;;;;;;;0.50;0.50;;;;;;;22.58;51.31;100675.13;5025164;28;20399;-75
2022/07/04 04:18:08;;;;;;;1.38;0.80;;;;;;;22.55;51.29;100675.78;5008429;28;20747;-75
2022/07/04 04:20:33;;;;;;;2.80;0.90;;;;;;;22.52;51.27;100681.94;5014493;28;20743;-75
2022/07/04 04:22:59;;;;;;;1.13;0.80;;;;;;;22.47;51.45;100689.53;5025340;28;20384;-75
2022/07/04 04:25:24;;;;;;;1.20;0.80;;;;;;;22.45;51.42;100689.88;5040127;28;20422;-75
2022/07/04 04:27:49;;;;;;;1.77;0.70;;;;;;;22.49;51.20;100695.56;5030636;28;20398;-75
2022/07/04 04:30:15;;;;;;;0.60;0.60;;;;;;;22.51;50.81;100696.06;5023198;28;20885;-75
2022/07/04 04:32:40;;;;;;;2.30;0.70;;;;;;;22.53;50.93;100702.06;5009380;28;20933;-75
2022/07/04 04:35:05;;;;;;;1.67;1.10;;;;;;;22.55;50.80;100702.59;5025133;28;20414;-75
2022/07/04 04:37:31;;;;;;;1.80;0.60;;;;;;;22.54;50.65;100710.06;5009716;28;20764;-75
2022/07/04 04:39:56;;;;;;;1.77;0.70;;;;;;;22.54;50.43;100706.47;5008686;28;20759;-75
2022/07/04 04:42:21;;;;;;;1.43;0.60;;;;;;;22.52;50.49;100712.31;5003118;28;20435;-75
2022/07/04 04:44:47;;;;;;;2.33;0.80;;;;;;;22.53;50.01;100718.63;5025563;28;20394;-75
2022/07/04 04:47:12;;;;;;;1.60;0.80;;;;;;;22.55;49.83;100721.91;5022571;28;20414;-75
2022/07/04 04:49:38;;;;;;;1.20;0.70;;;;;;;22.56;49.71;100720.75;5022848;28;20425;-75
2022/07/04 04:52:03;;;;;;;0.50;0.50;;;;;;;22.59;49.93;100725.69;5007547;28;20418;-75
2022/07/04 04:54:29;;;;;;;1.00;0.60;;;;;;;22.60;49.79;100722.59;5007335;28;20409;-75
2022/07/04 04:56:54;;;;;;;0.60;0.60;;;;;;;22.59;50.21;100718.19;5027967;28;20658;-75
2022/07/04 04:59:19;;;;;;;0.80;0.80;;;;;;;22.62;50.21;100725.84;5023130;28;20425;-74
2022/07/04 05:01:45;;;;;;;1.53;0.87;;;;;;;22.63;50.19;100721.13;5014543;28;20435;-74
2022/07/04 05:04:10;;;;;;;1.92;1.10;;;;;;;22.62;50.52;100728.59;5008284;28;20430;-74
2022/07/04 05:06:35;;;;;;;2.10;0.67;;;;;;;22.63;50.80;100730.22;5012182;28;20413;-76
2022/07/04 05:09:01;;;;;;;1.70;0.70;;;;;;;22.63;51.14;100732.19;5030986;28;20391;-75
2022/07/04 05:11:26;;;;;;;1.57;0.57;;;;;;;22.69;51.13;100739.22;5023412;28;20427;-75
2022/07/04 05:13:51;;;;;;;1.83;0.83;;;;;;;22.71;51.27;100737.78;5025939;28;20391;-76
2022/07/04 05:16:16;;;;;;;2.17;0.70;;;;;;;22.74;51.05;100739.91;5030489;28;20480;-75
2022/07/04 05:18:42;;;;;;;3.33;0.80;;;;;;;22.77;51.06;100746.75;5030912;28;20404;-75
2022/07/04 05:21:07;;;;;;;5.72;0.70;;;;;;;22.81;50.13;100742.22;5030920;28;20399;-76
2022/07/04 05:23:32;;;;;;;3.27;0.60;;;;;;;22.82;49.43;100746.59;5022719;28;20400;-76
2022/07/04 05:25:57;;;;;;;1.27;0.70;;;;;;;22.86;48.61;100742.06;5017140;28;20883;-75
2022/07/04 05:28:23;;;;;;;1.70;0.63;;;;;;;22.86;48.39;100742.06;5013645;28;20407;-75
2022/07/04 05:30:48;;;;;;;3.80;0.63;;;;;;;22.89;49.16;100737.81;5019943;28;20782;-76
2022/07/04 05:33:14;;;;;;;1.17;0.80;;;;;;;22.92;49.65;100743.53;5029414;28;20419;-76
2022/07/04 05:35:39;;;;;;;1.67;0.77;;;;;;;22.92;49.11;100738.00;5025519;28;20405;-76
2022/07/04 05:38:04;;;;;;;1.27;0.55;;;;;;;22.95;48.99;100739.34;5025993;28;20396;-76
2022/07/04 05:40:30;;;;;;;1.10;0.70;;;;;;;22.95;49.54;100731.03;5028747;28;20405;-76
2022/07/04 05:42:56;;;;;;;1.63;0.80;;;;;;;22.92;49.73;100734.44;5012547;28;20437;-76
2022/07/04 05:45:21;;;;;;;3.33;0.60;;;;;;;22.84;49.86;100730.50;5031709;28;20866;-77
2022/07/04 05:47:47;;;;;;;1.77;0.60;;;;;;;22.86;49.01;100735.69;5030063;28;20426;-77
2022/07/04 05:50:12;;;;;;;1.70;0.80;;;;;;;22.83;48.50;100731.63;5034774;28;20412;-76
2022/07/04 05:52:37;;;;;;;1.30;0.47;;;;;;;22.81;48.74;100735.88;5034714;28;20498;-76
2022/07/04 05:55:03;;;;;;;1.08;0.80;;;;;;;22.84;48.79;100729.69;5034488;28;20391;-76
2022/07/04 05:57:28;;;;;;;1.13;0.70;;;;;;;22.86;48.89;100731.00;5042681;28;20426;-76
2022/07/04 05:59:54;;;;;;;1.40;0.73;;;;;;;22.82;48.35;100729.22;5019695;28;20411;-76
2022/07/04 06:02:19;;;;;;;2.30;0.63;;;;;;;22.77;48.35;100737.63;5021036;28;20421;-75
2022/07/04 06:04:44;;;;;;;1.08;0.68;;;;;;;22.80;48.43;100726.75;5034492;28;20501;-76
2022/07/04 06:07:10;;;;;;;1.90;0.70;;;;;;;22.82;48.54;100720.91;5027789;28;20405;-76
2022/07/04 06:09:35;;;;;;;1.43;0.80;;;;;;;22.72;48.04;100730.31;5032266;28;20501;-76
2022/07/04 06:12:02;;;;;;;1.63;0.95;;;;;;;22.72;48.17;100722.81;5026957;28;20403;-77
2022/07/04 06:14:27;;;;;;;1.20;0.73;;;;;;;22.79;48.10;100724.31;5030021;28;20398;-77
2022/07/04 06:16:52;;;;;;;0.77;0.60;;;;;;;22.88;47.93;100730.69;5014348;28;20553;-76
2022/07/04 06:19:17;;;;;;;1.97;0.63;;;;;;;22.93;47.82;100730.53;5055180;28;20404;-76
2022/07/04 06:21:43;;;;;;;0.87;0.83;;;;;;;22.82;48.11;100716.19;5034043;28;20391;-76
2022/07/04 06:24:08;;;;;;;3.10;0.70;;;;;;;22.77;47.96;100721.06;5034003;28;20387;-75
2022/07/04 06:26:33;;;;;;;1.93;0.70;;;;;;;22.72;48.24;100716.50;5020999;28;20408;-75
2022/07/04 06:28:59;;;;;;;1.20;0.80;;;;;;;22.71;47.92;100715.69;5011135;28;20928;-76
2022/07/04 06:31:24;;;;;;;2.00;0.60;;;;;;;22.78;48.22;100720.75;5028624;28;20486;-75
2022/07/04 06:36:33;;;;;;;1.77;0.60;;;;;;;22.96;47.86;100716.06;5032928;28;20874;-75
2022/07/04 06:38:59;;;;;;;1.00;0.70;;;;;;;22.98;47.88;100714.63;5032063;28;20391;-76
2022/07/04 06:41:24;;;;;;;1.92;0.70;;;;;;;23.01;47.87;100713.16;5030028;28;20918;-75
2022/07/04 06:43:49;;;;;;;2.67;0.90;;;;;;;23.05;47.58;100711.41;5014946;28;20427;-75
2022/07/04 06:46:15;;;;;;;0.80;0.80;;;;;;;23.06;47.84;100713.81;5003100;28;20468;-75
2022/07/04 06:48:40;;;;;;;4.90;1.40;;;;;;;23.09;47.71;100710.41;5007690;28;20419;-75
2022/07/04 06:51:05;;;;;;;1.30;0.77;;;;;;;23.07;47.87;100712.69;5009992;28;20433;-76
2022/07/04 06:53:31;;;;;;;0.90;0.90;;;;;;;23.10;47.47;100711.22;5004872;28;20867;-75
2022/07/04 06:55:56;;;;;;;1.07;0.93;;;;;;;23.13;47.59;100713.34;5017169;28;20396;-76
2022/07/04 06:58:21;;;;;;;4.00;0.90;;;;;;;23.13;47.55;100710.59;5026764;28;20430;-75
2022/07/04 07:00:47;;;;;;;1.90;1.10;;;;;;;23.12;47.50;100708.94;5021323;28;20993;-76
2022/07/04 07:03:12;;;;;;;2.70;1.20;;;;;;;23.11;47.41;100713.69;5022464;28;20916;-75
2022/07/04 07:05:37;;;;;;;5.80;0.90;;;;;;;23.16;47.04;100709.94;5015773;28;20404;-76
2022/07/04 07:08:04;;;;;;;4.37;1.10;;;;;;;23.21;47.12;100709.81;5025650;28;20823;-76
2022/07/04 07:10:29;;;;;;;3.75;0.95;;;;;;;23.17;47.61;100717.94;5019335;28;20399;-75
2022/07/04 07:12:54;;;;;;;5.67;1.00;;;;;;;23.15;47.50;100722.94;5027537;28;20462;-75
2022/07/04 07:15:20;;;;;;;2.70;0.70;;;;;;;23.13;47.53;100716.94;5020802;28;20889;-75
2022/07/04 07:17:45;;;;;;;1.37;1.00;;;;;;;23.18;47.48;100711.22;5032162;28;20394;-76
2022/07/04 07:20:13;;;;;;;1.05;0.80;;;;;;;23.27;47.58;100709.31;5020601;28;20492;-76
2022/07/04 07:22:38;;;;;;;1.98;0.63;;;;;;;23.28;47.51;100705.41;5008658;28;20776;-76
2022/07/04 07:25:04;;;;;;;1.67;0.90;;;;;;;23.29;47.75;100703.44;5012473;28;20523;-75
2022/07/04 07:27:29;;;;;;;1.90;1.00;;;;;;;23.28;47.49;100710.94;5004476;28;20430;-75
2022/07/04 07:29:54;;;;;;;3.03;1.40;;;;;;;23.28;47.49;100710.94;5005499;28;20488;-75
2022/07/04 07:32:20;;;;;;;2.40;0.82;;;;;;;23.31;47.16;100712.25;4953409;28;1781906;-75
2022/07/04 07:34:45;;;;;;;2.40;1.10;;;;;;;23.30;47.09;100710.63;4996076;28;20979;-75
2022/07/04 07:37:10;;;;;;;3.73;1.30;;;;;;;23.29;47.32;100720.03;5046957;28;20413;-75
2022/07/04 07:39:35;;;;;;;2.60;1.30;;;;;;;23.31;47.75;100715.03;5004213;28;20412;-75
2022/07/04 07:42:01;;;;;;;2.77;1.00;;;;;;;23.33;47.90;100709.16;5022168;28;20417;-76
2022/07/04 07:44:26;;;;;;;1.53;0.87;;;;;;;23.41;47.55;100711.16;4998652;28;20514;-76
2022/07/04 07:46:51;;;;;;;2.37;0.97;;;;;;;23.45;46.81;100703.81;4997645;28;20418;-77
2022/07/04 07:49:17;;;;;;;3.43;0.93;;;;;;;23.52;47.05;100710.50;4999590;28;20515;-76
2022/07/04 07:51:42;;;;;;;2.05;0.80;;;;;;;23.57;46.34;100715.06;5008939;28;20832;-75
2022/07/04 07:54:07;;;;;;;1.20;1.10;;;;;;;23.44;46.01;100710.50;5013455;28;20409;-75
2022/07/04 07:56:33;;;;;;;1.73;1.00;;;;;;;23.44;46.71;100718.81;5012033;28;20433;-75
2022/07/04 07:58:58;;;;;;;2.07;1.03;;;;;;;23.47;46.41;100715.38;5007600;28;20410;-75
2022/07/04 08:01:23;;;;;;;2.00;1.00;;;;;;;23.54;46.65;100715.72;5003684;28;20410;-75
2022/07/04 08:06:33;;;;;;;2.03;1.27;;;;;;;23.56;46.79;100711.47;5000349;28;20475;-75
2022/07/04 08:08:59;;;;;;;3.00;1.13;;;;;;;23.59;46.70;100710.00;5001867;28;20437;-75
2022/07/04 08:11:25;;;;;;;3.40;1.20;;;;;;;23.57;46.52;100717.84;5004060;28;20417;-75
2022/07/04 08:13:51;;;;;;;4.43;1.20;;;;;;;23.59;46.40;100712.78;5007496;28;20427;-75
2022/07/04 08:16:17;;;;;;;2.28;1.13;;;;;;;23.59;46.86;100702.53;4997021;28;20700;-75
2022/07/04 08:18:42;;;;;;;2.90;1.40;;;;;;;23.67;46.91;100698.97;4995340;28;20813;-76
2022/07/04 08:21:07;;;;;;;1.60;1.02;;;;;;;23.77;46.72;100700.56;5004627;28;20409;-75
2022/07/04 08:23:33;;;;;;;1.50;0.90;;;;;;;23.87;46.79;100696.66;5013216;28;20494;-75
2022/07/04 08:25:59;;;;;;;3.20;1.00;;;;;;;23.89;46.61;100695.19;5008673;28;20797;-75
2022/07/04 08:28:26;;;;;;;1.52;0.90;;;;;;;23.94;46.65;100685.91;4996819;28;20404;-76
2022/07/04 08:30:51;;;;;;;1.50;0.87;;;;;;;23.97;46.42;100679.72;4997324;28;20784;-75
2022/07/04 08:33:17;;;;;;;2.27;1.00;;;;;;;24.11;46.19;100680.31;4997323;28;20420;-76
2022/07/04 08:35:42;;;;;;;1.25;1.15;;;;;;;24.20;45.94;100679.16;4996043;28;20405;-75
2022/07/04 08:38:08;;;;;;;2.42;1.00;;;;;;;24.27;45.82;100684.19;4998421;28;20412;-75
2022/07/04 08:40:33;;;;;;;2.60;0.80;;;;;;;24.35;45.87;100680.59;4997909;28;20745;-75
2022/07/04 08:43:01;;;;;;;2.97;1.10;;;;;;;24.48;45.76;100679.56;4999497;28;20918;-75
2022/07/04 08:45:29;;;;;;;2.40;1.10;;;;;;;24.46;45.51;100668.03;4996975;28;20495;-76
2022/07/04 08:48:01;;;;;;;2.72;1.10;;;;;;;24.39;45.77;100672.44;4995449;28;20571;-74
2022/07/04 08:50:38;;;;;;;2.42;1.13;;;;;;;24.44;46.14;100672.25;4997647;28;20410;-75
2022/07/04 08:53:12;;;;;;;1.38;0.90;;;;;;;24.69;45.55;100663.03;5000520;28;20499;-75
2022/07/04 08:58:26;;;;;;;2.87;1.10;;;;;;;24.92;45.19;100667.16;4997702;28;20459;-75
2022/07/04 09:00:53;;;;;;;1.27;1.17;;;;;;;24.76;45.35;100663.31;4996010;28;20463;-75
2022/07/04 09:03:19;;;;;;;3.08;0.88;;;;;;;24.64;45.99;100663.19;4998021;28;20424;-75
2022/07/04 09:05:45;;;;;;;4.43;1.20;;;;;;;24.69;45.75;100666.59;4999430;28;20411;-76
2022/07/04 09:08:11;;;;;;;2.30;0.80;;;;;;;24.83;45.82;100660.81;4997318;28;20499;-75
2022/07/04 09:10:37;;;;;;;7.68;0.90;;;;;;;24.97;44.93;100660.59;4996713;28;20876;-75
2022/07/04 09:13:05;;;;;;;3.15;0.90;;;;;;;25.10;44.71;100663.09;5012389;28;20507;-75
2022/07/04 09:15:31;;;;;;;2.47;0.88;;;;;;;25.20;44.13;100659.94;4999056;28;20413;-76
2022/07/04 09:17:57;;;;;;;1.30;1.00;;;;;;;25.40;43.64;100666.63;4997248;28;20436;-76
2022/07/04 09:20:24;;;;;;;3.80;0.93;;;;;;;25.53;42.92;100659.22;4997489;28;20974;-75
2022/07/04 09:22:51;;;;;;;0.87;0.80;;;;;;;25.55;42.29;100662.47;4998054;28;20867;-76
2022/07/04 09:25:17;;;;;;;3.30;0.80;;;;;;;25.68;41.86;100662.19;4996569;28;20899;-76
2022/07/04 09:27:48;;;;;;;2.13;0.68;;;;;;;25.77;41.58;100667.66;5005074;28;20413;-76
2022/07/04 09:30:19;;;;;;;1.58;0.80;;;;;;;25.95;41.06;100665.53;4999861;28;20396;-75
2022/07/04 09:32:47;;;;;;;2.95;0.95;;;;;;;26.04;41.10;100658.72;4996401;28;20435;-75
2022/07/04 09:35:16;;;;;;;2.83;0.80;;;;;;;26.15;40.97;100672.94;4994596;28;20421;-75
2022/07/04 09:37:47;;;;;;;2.42;0.90;;;;;;;26.22;40.57;100668.50;4997695;28;20504;-75
2022/07/04 09:40:27;;;;;;;2.42;0.88;;;;;;;26.41;40.89;100669.94;4997077;28;20417;-74
2022/07/04 09:42:54;;;;;;;0.90;0.65;;;;;;;26.62;40.74;100677.00;5011807;28;20415;-75
2022/07/04 09:45:23;;;;;;;0.87;0.87;;;;;;;26.71;40.04;100685.22;5003138;28;20758;-75
2022/07/04 09:47:48;;;;;;;3.65;1.10;;;;;;;26.80;39.95;100685.94;5025689;28;20768;-75
2022/07/04 09:50:19;;;;;;;1.83;0.93;;;;;;;26.88;39.45;100678.63;5004166;28;20488;-76
2022/07/04 09:53:01;;;;;;;2.80;0.93;;;;;;;26.92;39.98;100683.16;5003756;28;20536;-75
2022/07/04 09:55:32;;;;;;;1.57;0.73;;;;;;;27.17;39.03;100670.81;5005594;28;20397;-76
2022/07/04 09:58:00;;;;;;;3.60;0.77;;;;;;;27.33;38.32;100677.28;5006962;28;20419;-76
2022/07/04 10:00:27;;;;;;;2.33;1.15;;;;;;;27.52;38.70;100681.44;4991175;28;20474;-76
2022/07/04 10:02:54;;;;;;;1.40;0.80;;;;;;;27.94;38.75;100687.41;5002469;28;20473;-75
2022/07/04 10:05:22;;;;;;;2.25;0.82;;;;;;;28.32;38.16;100685.69;5001618;28;20418;-74
2022/07/04 10:07:47;;;;;;;2.53;0.90;;;;;;;28.58;36.84;100681.59;4995604;28;20496;-76
2022/07/04 10:10:32;;;;;;;2.87;0.60;;;;;;;29.17;35.87;100689.81;4997069;28;20491;-75
2022/07/04 10:13:04;;;;;;;0.90;0.90;;;;;;;30.13;35.08;100689.88;4995359;28;20924;-75
2022/07/04 10:15:29;;;;;;;1.00;0.60;;;;;;;31.12;32.87;100683.97;4998998;28;20452;-76
2022/07/04 10:17:55;;;;;;;1.10;0.73;;;;;;;32.37;30.93;100693.56;4996478;28;20495;-75
2022/07/04 10:20:20;;;;;;;0.70;0.70;;;;;;;32.85;30.22;100685.19;4998585;28;20460;-75
2022/07/04 10:22:46;;;;;;;2.50;0.97;;;;;;;33.28;29.87;100701.13;4996627;28;20442;-76
2022/07/04 10:25:11;;;;;;;3.15;0.82;;;;;;;33.90;28.05;100692.59;5008226;28;20995;-76
2022/07/04 10:27:37;;;;;;;1.63;0.88;;;;;;;33.90;27.94;100687.78;5011624;28;20492;-76
2022/07/04 10:30:06;;;;;;;2.22;0.77;;;;;;;34.32;27.53;100686.28;4998944;28;20414;-75
2022/07/04 10:32:33;;;;;;;3.20;0.60;;;;;;;34.79;26.56;100687.94;4998489;28;20852;-75
2022/07/04 10:34:59;;;;;;;0.65;0.52;;;;;;;35.21;25.73;100684.25;5000199;28;20825;-75
2022/07/04 10:37:24;;;;;;;2.50;0.63;;;;;;;34.96;26.41;100683.50;4999324;28;20455;-76
2022/07/04 10:39:49;;;;;;;1.93;0.90;;;;;;;34.83;26.65;100685.94;5003333;28;20444;-76
2022/07/04 10:42:25;;;;;;;2.50;0.90;;;;;;;34.75;26.06;100673.84;5006561;28;20410;-76
2022/07/04 10:44:51;;;;;;;1.10;0.60;;;;;;;34.89;26.57;100681.50;4999893;28;20411;-76
2022/07/04 10:47:24;;;;;;;1.33;0.80;;;;;;;35.50;24.89;100676.53;5007108;28;20415;-74
2022/07/04 10:49:51;;;;;;;2.85;0.75;;;;;;;35.96;24.75;100679.97;5000354;28;20432;-76
2022/07/04 10:52:16;;;;;;;2.15;0.70;;;;;;;36.25;24.13;100681.41;5000221;28;20420;-76
2022/07/04 10:54:43;;;;;;;1.97;0.60;;;;;;;36.16;24.40;100686.69;5001378;28;20900;-76
2022/07/04 10:57:21;;;;;;;0.52;0.50;;;;;;;36.02;24.73;100674.69;5016981;28;20408;-75
2022/07/04 10:59:53;;;;;;;0.65;0.50;;;;;;;35.70;24.96;100664.38;4998711;28;20453;-75
2022/07/04 11:02:18;;;;;;;1.05;0.60;;;;;;;35.54;25.32;100668.84;5003758;28;20420;-76
2022/07/04 11:04:54;;;;;;;0.67;0.60;;;;;;;35.95;24.42;100660.63;5001035;28;20413;-75
2022/07/04 11:07:42;;;;;;;1.23;0.60;;;;;;;36.23;24.23;100657.63;4998280;28;20415;-75
2022/07/04 11:10:11;;;;;;;0.95;0.47;;;;;;;36.16;23.95;100657.72;5005433;28;21631;-75
2022/07/04 11:13:00;;;;;;;3.70;0.63;;;;;;;36.16;24.26;100650.03;5004394;28;20781;-76
2022/07/04 11:15:28;;;;;;;0.97;0.80;;;;;;;37.08;23.39;100651.28;5001988;28;20416;-73
2022/07/04 11:18:08;;;;;;;1.35;0.82;;;;;;;37.60;22.47;100655.53;4998768;28;20431;-75
2022/07/04 11:20:35;;;;;;;0.50;0.50;;;;;;;38.02;22.26;100653.34;5030791;28;20489;-76
2022/07/04 11:23:08;;;;;;;0.60;0.57;;;;;;;37.80;22.12;100644.34;4999422;28;20425;-75
2022/07/04 11:25:34;;;;;;;1.38;0.60;;;;;;;37.57;22.30;100645.06;5000735;28;20460;-75
2022/07/04 11:28:19;;;;;;;1.40;0.55;;;;;;;37.89;22.28;100636.13;4999176;28;20824;-75
2022/07/04 11:30:51;;;;;;;1.50;0.50;;;;;;;37.89;22.35;100634.09;5002420;28;20412;-76
2022/07/04 11:33:25;;;;;;;0.85;0.63;;;;;;;38.13;22.27;100634.97;4997139;28;20542;-75
2022/07/04 11:36:09;;;;;;;1.45;0.57;;;;;;;37.71;22.79;100638.41;4997679;28;20427;-74